createdAt,value
2024-05-09T00:02:02.217Z,10.8
2024-05-09T00:12:02.468Z,10.8
2024-05-09T00:22:02.606Z,10.6
2024-05-09T00:32:02.853Z,10.6
2024-05-09T00:42:02.995Z,10.7
2024-05-09T00:52:03.173Z,10.6
2024-05-09T01:02:03.486Z,10.6
2024-05-09T01:12:03.666Z,10.4
2024-05-09T01:22:03.774Z,10.3
2024-05-09T01:32:04.067Z,10.1
2024-05-09T01:42:04.164Z,10
2024-05-09T01:52:04.357Z,9.9
2024-05-09T02:02:04.650Z,9.8
2024-05-09T02:12:04.856Z,9.7
2024-05-09T02:22:04.972Z,9.6
2024-05-09T02:32:05.186Z,9.6
2024-05-09T02:42:05.339Z,9.5
2024-05-09T02:52:05.535Z,9.3
2024-05-09T03:02:05.798Z,9.3
2024-05-09T03:12:06.028Z,9.1
2024-05-09T03:22:06.180Z,9
2024-05-09T03:32:06.382Z,8.9
2024-05-09T03:42:06.522Z,8.9
2024-05-09T03:52:06.749Z,8.8
2024-05-09T04:02:06.990Z,8.7
2024-05-09T04:12:07.148Z,8.9
2024-05-09T04:32:07.577Z,8.8
2024-05-09T04:42:07.713Z,8.9
2024-05-09T04:52:07.906Z,9
2024-05-09T05:02:08.202Z,9.1
2024-05-09T05:12:08.497Z,9.5
2024-05-09T05:32:08.801Z,10.8
2024-05-09T05:52:09.096Z,12.1
2024-05-09T07:12:10.797Z,14.3
2024-05-09T07:32:11.119Z,14.6
2024-05-09T07:42:11.257Z,15.1
2024-05-09T07:53:07.461Z,15.5
2024-05-09T08:02:11.910Z,15.8
2024-05-09T08:12:11.853Z,16.6
2024-05-09T08:22:12.104Z,17.3
2024-05-09T08:32:12.263Z,17.4
2024-05-09T08:42:12.425Z,17.9
2024-05-09T08:52:12.696Z,17.9
2024-05-09T09:02:12.963Z,18.3
2024-05-09T09:12:13.019Z,18.3
2024-05-09T09:22:13.251Z,19
2024-05-09T09:52:13.930Z,19.3
2024-05-09T10:02:14.231Z,19.5
2024-05-09T10:12:14.257Z,19.8
2024-05-09T10:22:14.441Z,20
2024-05-09T10:32:14.588Z,20.7
2024-05-09T10:52:15.008Z,19.9
2024-05-09T11:02:15.287Z,20.9
2024-05-09T11:12:15.370Z,20.5
2024-05-09T11:22:15.631Z,21
2024-05-09T11:32:15.819Z,21.7
2024-05-09T11:42:15.944Z,21.4
2024-05-09T11:52:16.203Z,21.3
2024-05-09T12:02:16.732Z,21.3
2024-05-09T12:12:16.512Z,21
2024-05-09T12:32:16.933Z,21.3
2024-05-09T12:42:25.846Z,21.2
2024-05-09T12:52:17.364Z,21.3
2024-05-09T13:02:17.728Z,21.2
2024-05-09T13:12:17.698Z,21.4
2024-05-09T13:22:17.917Z,21.6
2024-05-09T13:32:18.076Z,21.6
2024-05-09T13:42:18.276Z,21.3
2024-05-09T13:52:18.734Z,21.3
2024-05-09T14:02:18.934Z,21.2
2024-05-09T14:12:18.892Z,21
2024-05-09T14:22:19.106Z,20.9
2024-05-09T14:32:19.281Z,21.1
2024-05-09T14:42:19.457Z,21.2
2024-05-09T14:52:19.674Z,21.5
2024-05-09T15:32:20.442Z,20.8
2024-05-09T15:52:20.831Z,20.5
2024-05-09T16:02:21.167Z,20.3
2024-05-09T16:12:21.197Z,20.4
2024-05-09T16:22:21.436Z,20.2
2024-05-09T16:32:21.596Z,20.1
2024-05-09T16:42:21.800Z,20.1
2024-05-09T16:52:21.973Z,20
2024-05-09T17:12:22.373Z,20
2024-05-09T17:22:22.609Z,20.1
2024-05-09T17:32:22.855Z,19.9
2024-05-09T17:42:22.962Z,19.8
2024-05-09T17:52:23.216Z,19.9
2024-05-09T18:02:23.447Z,19.8
2024-05-09T18:12:23.545Z,19.5
2024-05-09T18:22:23.770Z,19.3
2024-05-09T18:32:24.064Z,19.1
2024-05-09T18:42:24.125Z,18.7
2024-05-09T18:52:24.318Z,18.2
2024-05-09T19:02:24.580Z,17.9
2024-05-09T19:22:24.977Z,17.3
2024-05-09T19:32:25.176Z,17
2024-05-09T19:42:25.302Z,16.8
2024-05-09T19:52:25.505Z,16.4
2024-05-09T20:02:25.919Z,16.1
2024-05-09T20:12:25.882Z,15.9
2024-05-09T20:22:26.074Z,15.8
2024-05-09T20:32:26.322Z,15.6
2024-05-09T20:42:26.531Z,15.4
2024-05-09T20:52:26.658Z,15.3
2024-05-09T21:02:26.925Z,15.2
2024-05-09T21:12:27.074Z,14.9
2024-05-09T21:22:27.325Z,14.8
2024-05-09T21:32:27.520Z,14.7
2024-05-09T21:42:27.693Z,14.5
2024-05-09T21:52:27.844Z,14.3
2024-05-09T22:02:28.152Z,14.3
2024-05-09T22:12:28.224Z,14
2024-05-09T22:22:28.482Z,13.9
2024-05-09T22:32:28.677Z,13.8
2024-05-09T22:42:28.838Z,13.5
2024-05-09T22:52:29.035Z,13.1
2024-05-09T23:02:29.242Z,12.9
2024-05-09T23:12:29.401Z,12.6
2024-05-09T23:22:29.592Z,12.6
2024-05-09T23:32:29.828Z,12.5
2024-05-09T23:42:29.992Z,12.3
2024-05-09T23:52:30.196Z,12.2
